sensor_id;sensor_type;location;lat;lon;timestamp;temperature;humidity
68177;DHT22;56478;50.982;7.032;2023-03-01T00:01:27;1.55;65.38
68177;DHT22;56478;50.982;7.032;2023-03-01T00:03:53;1.52;65.28
68177;DHT22;56478;50.982;7.032;2023-03-01T00:06:20;1.43;65.75
68177;DHT22;56478;50.982;7.032;2023-03-01T00:08:46;1.42;65.72
68177;DHT22;56478;50.982;7.032;2023-03-01T00:11:23;1.38;66.30
68177;DHT22;56478;50.982;7.032;2023-03-01T00:13:50;1.35;66.31
68177;DHT22;56478;50.982;7.032;2023-03-01T00:16:25;1.35;65.78
68177;DHT22;56478;50.982;7.032;2023-03-01T00:18:51;1.43;65.42
68177;DHT22;56478;50.982;7.032;2023-03-01T00:21:17;1.48;65.49
68177;DHT22;56478;50.982;7.032;2023-03-01T00:23:43;1.41;66.07
68177;DHT22;56478;50.982;7.032;2023-03-01T00:26:11;1.45;65.65
68177;DHT22;56478;50.982;7.032;2023-03-01T00:28:37;1.43;65.81
68177;DHT22;56478;50.982;7.032;2023-03-01T00:33:30;1.42;65.84
68177;DHT22;56478;50.982;7.032;2023-03-01T00:35:58;1.41;66.20
68177;DHT22;56478;50.982;7.032;2023-03-01T00:38:23;1.48;65.79
68177;DHT22;56478;50.982;7.032;2023-03-01T00:40:49;1.48;65.84
68177;DHT22;56478;50.982;7.032;2023-03-01T00:43:15;1.50;66.12
68177;DHT22;56478;50.982;7.032;2023-03-01T00:45:40;1.43;65.80
68177;DHT22;56478;50.982;7.032;2023-03-01T00:48:06;1.38;66.14
68177;DHT22;56478;50.982;7.032;2023-03-01T00:50:31;1.41;65.96
68177;DHT22;56478;50.982;7.032;2023-03-01T00:52:57;1.38;66.18
68177;DHT22;56478;50.982;7.032;2023-03-01T00:55:24;1.38;66.16
68177;DHT22;56478;50.982;7.032;2023-03-01T00:57:50;1.30;65.91
68177;DHT22;56478;50.982;7.032;2023-03-01T01:00:16;1.25;66.32
68177;DHT22;56478;50.982;7.032;2023-03-01T01:02:44;1.24;65.82
68177;DHT22;56478;50.982;7.032;2023-03-01T01:05:10;1.24;66.00
68177;DHT22;56478;50.982;7.032;2023-03-01T01:07:35;1.23;66.16
68177;DHT22;56478;50.982;7.032;2023-03-01T01:10:01;1.23;65.76
68177;DHT22;56478;50.982;7.032;2023-03-01T01:12:27;1.14;66.36
68177;DHT22;56478;50.982;7.032;2023-03-01T01:14:52;1.18;65.96
68177;DHT22;56478;50.982;7.032;2023-03-01T01:17:18;1.21;65.71
68177;DHT22;56478;50.982;7.032;2023-03-01T01:19:43;1.20;65.87
68177;DHT22;56478;50.982;7.032;2023-03-01T01:22:09;1.14;66.01
68177;DHT22;56478;50.982;7.032;2023-03-01T01:24:36;1.13;66.63
68177;DHT22;56478;50.982;7.032;2023-03-01T01:27:01;1.15;66.55
68177;DHT22;56478;50.982;7.032;2023-03-01T01:29:27;1.14;66.32
68177;DHT22;56478;50.982;7.032;2023-03-01T01:31:53;1.11;66.55
68177;DHT22;56478;50.982;7.032;2023-03-01T01:34:20;1.11;66.83
68177;DHT22;56478;50.982;7.032;2023-03-01T01:36:51;1.11;66.74
68177;DHT22;56478;50.982;7.032;2023-03-01T01:39:18;1.04;66.33
68177;DHT22;56478;50.982;7.032;2023-03-01T01:41:44;1.08;66.93
68177;DHT22;56478;50.982;7.032;2023-03-01T01:44:11;1.07;67.11
68177;DHT22;56478;50.982;7.032;2023-03-01T01:46:44;0.97;66.58
68177;DHT22;56478;50.982;7.032;2023-03-01T01:49:23;0.97;66.28
68177;DHT22;56478;50.982;7.032;2023-03-01T01:51:52;0.91;66.46
68177;DHT22;56478;50.982;7.032;2023-03-01T01:54:38;0.91;66.92
68177;DHT22;56478;50.982;7.032;2023-03-01T01:57:09;0.87;66.88
68177;DHT22;56478;50.982;7.032;2023-03-01T01:59:36;0.81;67.29
68177;DHT22;56478;50.982;7.032;2023-03-01T02:02:03;0.80;67.10
68177;DHT22;56478;50.982;7.032;2023-03-01T02:04:31;0.83;66.83
68177;DHT22;56478;50.982;7.032;2023-03-01T02:07:09;0.70;67.25
68177;DHT22;56478;50.982;7.032;2023-03-01T02:09:38;0.65;67.25
68177;DHT22;56478;50.982;7.032;2023-03-01T02:12:05;0.65;67.68
68177;DHT22;56478;50.982;7.032;2023-03-01T02:14:31;0.65;68.05
68177;DHT22;56478;50.982;7.032;2023-03-01T02:16:56;0.70;67.63
68177;DHT22;56478;50.982;7.032;2023-03-01T02:19:41;0.70;67.39
68177;DHT22;56478;50.982;7.032;2023-03-01T02:30:43;0.58;67.53
68177;DHT22;56478;50.982;7.032;2023-03-01T02:33:28;0.45;68.53
68177;DHT22;56478;50.982;7.032;2023-03-01T02:35:54;0.49;68.72
68177;DHT22;56478;50.982;7.032;2023-03-01T02:38:21;0.58;68.28
68177;DHT22;56478;50.982;7.032;2023-03-01T02:40:49;0.55;67.85
68177;DHT22;56478;50.982;7.032;2023-03-01T02:43:16;0.48;67.75
68177;DHT22;56478;50.982;7.032;2023-03-01T02:45:50;0.38;68.67
68177;DHT22;56478;50.982;7.032;2023-03-01T02:48:17;0.29;68.88
68177;DHT22;56478;50.982;7.032;2023-03-01T02:51:04;0.34;68.30
68177;DHT22;56478;50.982;7.032;2023-03-01T02:53:56;0.31;68.94
68177;DHT22;56478;50.982;7.032;2023-03-01T02:56:25;0.34;68.49
68177;DHT22;56478;50.982;7.032;2023-03-01T02:58:51;0.35;68.15
68177;DHT22;56478;50.982;7.032;2023-03-01T03:01:19;0.32;68.92
68177;DHT22;56478;50.982;7.032;2023-03-01T03:03:44;0.29;68.73
68177;DHT22;56478;50.982;7.032;2023-03-01T03:06:10;0.15;69.04
68177;DHT22;56478;50.982;7.032;2023-03-01T03:08:36;0.11;69.47
68177;DHT22;56478;50.982;7.032;2023-03-01T03:11:02;0.09;69.46
68177;DHT22;56478;50.982;7.032;2023-03-01T03:13:27;0.14;68.94
68177;DHT22;56478;50.982;7.032;2023-03-01T03:15:56;0.15;69.42
68177;DHT22;56478;50.982;7.032;2023-03-01T03:18:23;0.20;69.47
68177;DHT22;56478;50.982;7.032;2023-03-01T03:20:52;0.17;69.51
68177;DHT22;56478;50.982;7.032;2023-03-01T03:23:19;0.11;69.37
68177;DHT22;56478;50.982;7.032;2023-03-01T03:25:48;0.04;69.82
68177;DHT22;56478;50.982;7.032;2023-03-01T03:28:14;0.04;69.61
68177;DHT22;56478;50.982;7.032;2023-03-01T03:30:43;0.04;69.84
68177;DHT22;56478;50.982;7.032;2023-03-01T03:33:12;-0.01;69.69
68177;DHT22;56478;50.982;7.032;2023-03-01T03:35:40;-0.06;70.12
68177;DHT22;56478;50.982;7.032;2023-03-01T03:38:08;-0.10;69.85
68177;DHT22;56478;50.982;7.032;2023-03-01T03:40:49;-0.10;70.30
68177;DHT22;56478;50.982;7.032;2023-03-01T03:43:20;-0.08;69.90
68177;DHT22;56478;50.982;7.032;2023-03-01T03:45:48;-0.13;70.08
68177;DHT22;56478;50.982;7.032;2023-03-01T03:48:15;-0.17;70.08
68177;DHT22;56478;50.982;7.032;2023-03-01T03:50:41;-0.15;70.46
68177;DHT22;56478;50.982;7.032;2023-03-01T03:53:11;-0.15;70.24
68177;DHT22;56478;50.982;7.032;2023-03-01T03:55:37;-0.14;70.14
68177;DHT22;56478;50.982;7.032;2023-03-01T03:58:05;-0.10;69.98
68177;DHT22;56478;50.982;7.032;2023-03-01T04:00:41;-0.08;69.59
68177;DHT22;56478;50.982;7.032;2023-03-01T04:03:08;-0.13;69.84
68177;DHT22;56478;50.982;7.032;2023-03-01T04:05:34;-0.17;69.80
68177;DHT22;56478;50.982;7.032;2023-03-01T04:08:00;-0.19;70.17
68177;DHT22;56478;50.982;7.032;2023-03-01T04:10:30;-0.24;70.41
68177;DHT22;56478;50.982;7.032;2023-03-01T04:12:56;-0.19;70.32
68177;DHT22;56478;50.982;7.032;2023-03-01T04:15:23;-0.15;70.62
68177;DHT22;56478;50.982;7.032;2023-03-01T04:17:50;-0.13;70.32
68177;DHT22;56478;50.982;7.032;2023-03-01T04:20:19;-0.10;70.38
68177;DHT22;56478;50.982;7.032;2023-03-01T04:22:57;-0.18;69.80
68177;DHT22;56478;50.982;7.032;2023-03-01T04:25:23;-0.17;70.01
68177;DHT22;56478;50.982;7.032;2023-03-01T04:27:48;-0.17;69.98
68177;DHT22;56478;50.982;7.032;2023-03-01T04:30:14;-0.15;70.39
68177;DHT22;56478;50.982;7.032;2023-03-01T04:32:40;-0.19;70.22
68177;DHT22;56478;50.982;7.032;2023-03-01T04:35:06;-0.22;70.21
68177;DHT22;56478;50.982;7.032;2023-03-01T04:37:32;-0.21;70.35
68177;DHT22;56478;50.982;7.032;2023-03-01T04:39:58;-0.21;70.62
68177;DHT22;56478;50.982;7.032;2023-03-01T04:42:23;-0.28;70.47
68177;DHT22;56478;50.982;7.032;2023-03-01T04:44:49;-0.31;70.99
68177;DHT22;56478;50.982;7.032;2023-03-01T04:47:16;-0.36;70.73
68177;DHT22;56478;50.982;7.032;2023-03-01T04:49:42;-0.34;70.70
68177;DHT22;56478;50.982;7.032;2023-03-01T04:52:07;-0.38;71.09
68177;DHT22;56478;50.982;7.032;2023-03-01T04:54:35;-0.38;71.10
68177;DHT22;56478;50.982;7.032;2023-03-01T04:57:01;-0.35;70.76
68177;DHT22;56478;50.982;7.032;2023-03-01T04:59:27;-0.36;70.71
68177;DHT22;56478;50.982;7.032;2023-03-01T05:01:55;-0.36;71.10
68177;DHT22;56478;50.982;7.032;2023-03-01T05:04:21;-0.36;70.86
68177;DHT22;56478;50.982;7.032;2023-03-01T05:06:48;-0.34;70.89
68177;DHT22;56478;50.982;7.032;2023-03-01T05:09:14;-0.31;70.40
68177;DHT22;56478;50.982;7.032;2023-03-01T05:11:40;-0.36;70.67
68177;DHT22;56478;50.982;7.032;2023-03-01T05:14:06;-0.41;70.32
68177;DHT22;56478;50.982;7.032;2023-03-01T05:16:32;-0.45;70.88
68177;DHT22;56478;50.982;7.032;2023-03-01T05:18:59;-0.48;70.61
68177;DHT22;56478;50.982;7.032;2023-03-01T05:21:25;-0.46;70.89
68177;DHT22;56478;50.982;7.032;2023-03-01T05:23:51;-0.52;71.03
68177;DHT22;56478;50.982;7.032;2023-03-01T05:26:19;-0.48;70.95
68177;DHT22;56478;50.982;7.032;2023-03-01T05:28:47;-0.45;70.70
68177;DHT22;56478;50.982;7.032;2023-03-01T05:31:13;-0.48;70.70
68177;DHT22;56478;50.982;7.032;2023-03-01T05:33:40;-0.49;70.45
68177;DHT22;56478;50.982;7.032;2023-03-01T05:36:07;-0.51;70.58
68177;DHT22;56478;50.982;7.032;2023-03-01T05:38:35;-0.51;70.73
68177;DHT22;56478;50.982;7.032;2023-03-01T05:41:01;-0.55;70.85
68177;DHT22;56478;50.982;7.032;2023-03-01T05:43:30;-0.52;70.93
68177;DHT22;56478;50.982;7.032;2023-03-01T05:45:59;-0.52;70.71
68177;DHT22;56478;50.982;7.032;2023-03-01T05:48:25;-0.58;71.26
68177;DHT22;56478;50.982;7.032;2023-03-01T05:50:51;-0.51;70.62
68177;DHT22;56478;50.982;7.032;2023-03-01T05:53:18;-0.58;71.04
68177;DHT22;56478;50.982;7.032;2023-03-01T05:55:47;-0.56;70.73
68177;DHT22;56478;50.982;7.032;2023-03-01T05:58:15;-0.59;71.45
68177;DHT22;56478;50.982;7.032;2023-03-01T06:00:42;-0.65;71.17
68177;DHT22;56478;50.982;7.032;2023-03-01T06:03:10;-0.52;70.88
68177;DHT22;56478;50.982;7.032;2023-03-01T06:05:36;-0.58;70.51
68177;DHT22;56478;50.982;7.032;2023-03-01T06:08:02;-0.66;70.68
68177;DHT22;56478;50.982;7.032;2023-03-01T06:10:28;-0.60;71.29
68177;DHT22;56478;50.982;7.032;2023-03-01T06:12:54;-0.62;70.87
68177;DHT22;56478;50.982;7.032;2023-03-01T06:15:21;-0.63;71.22
68177;DHT22;56478;50.982;7.032;2023-03-01T06:17:46;-0.66;71.02
68177;DHT22;56478;50.982;7.032;2023-03-01T06:20:20;-0.72;71.34
68177;DHT22;56478;50.982;7.032;2023-03-01T06:22:47;-0.66;70.71
68177;DHT22;56478;50.982;7.032;2023-03-01T06:25:16;-0.63;71.49
68177;DHT22;56478;50.982;7.032;2023-03-01T06:27:43;-0.68;70.79
68177;DHT22;56478;50.982;7.032;2023-03-01T06:30:10;-0.62;70.97
68177;DHT22;56478;50.982;7.032;2023-03-01T06:32:37;-0.66;71.28
68177;DHT22;56478;50.982;7.032;2023-03-01T06:35:04;-0.55;71.02
68177;DHT22;56478;50.982;7.032;2023-03-01T06:37:29;-0.55;71.01
68177;DHT22;56478;50.982;7.032;2023-03-01T06:39:55;-0.53;70.88
68177;DHT22;56478;50.982;7.032;2023-03-01T06:42:21;-0.53;70.69
68177;DHT22;56478;50.982;7.032;2023-03-01T06:44:46;-0.51;70.79
68177;DHT22;56478;50.982;7.032;2023-03-01T06:47:12;-0.51;71.18
68177;DHT22;56478;50.982;7.032;2023-03-01T06:49:38;-0.46;70.28
68177;DHT22;56478;50.982;7.032;2023-03-01T06:52:03;-0.42;70.47
68177;DHT22;56478;50.982;7.032;2023-03-01T06:54:29;-0.42;70.75
68177;DHT22;56478;50.982;7.032;2023-03-01T06:56:54;-0.39;70.12
68177;DHT22;56478;50.982;7.032;2023-03-01T06:59:20;-0.35;69.71
68177;DHT22;56478;50.982;7.032;2023-03-01T07:01:46;-0.31;70.28
68177;DHT22;56478;50.982;7.032;2023-03-01T07:04:12;-0.25;69.51
68177;DHT22;56478;50.982;7.032;2023-03-01T07:06:39;-0.19;70.16
68177;DHT22;56478;50.982;7.032;2023-03-01T07:09:04;-0.11;70.46
68177;DHT22;56478;50.982;7.032;2023-03-01T07:11:30;-0.01;69.96
68177;DHT22;56478;50.982;7.032;2023-03-01T07:13:55;0.09;69.74
68177;DHT22;56478;50.982;7.032;2023-03-01T07:16:21;0.11;69.89
68177;DHT22;56478;50.982;7.032;2023-03-01T07:18:47;0.52;68.37
68177;DHT22;56478;50.982;7.032;2023-03-01T07:21:14;1.38;65.30
68177;DHT22;56478;50.982;7.032;2023-03-01T07:23:40;1.48;65.35
68177;DHT22;56478;50.982;7.032;2023-03-01T07:26:06;1.67;64.30
68177;DHT22;56478;50.982;7.032;2023-03-01T07:28:32;1.81;63.77
68177;DHT22;56478;50.982;7.032;2023-03-01T07:31:05;2.18;63.36
68177;DHT22;56478;50.982;7.032;2023-03-01T07:33:31;2.24;62.26
68177;DHT22;56478;50.982;7.032;2023-03-01T07:36:02;2.32;62.50
68177;DHT22;56478;50.982;7.032;2023-03-01T07:38:28;2.36;62.71
68177;DHT22;56478;50.982;7.032;2023-03-01T07:40:58;2.79;61.74
68177;DHT22;56478;50.982;7.032;2023-03-01T07:43:24;3.33;60.84
68177;DHT22;56478;50.982;7.032;2023-03-01T07:45:50;3.87;59.04
68177;DHT22;56478;50.982;7.032;2023-03-01T07:48:15;4.36;56.58
68177;DHT22;56478;50.982;7.032;2023-03-01T07:50:41;5.40;53.94
68177;DHT22;56478;50.982;7.032;2023-03-01T07:53:06;6.28;52.04
68177;DHT22;56478;50.982;7.032;2023-03-01T07:55:32;7.18;48.64
68177;DHT22;56478;50.982;7.032;2023-03-01T07:57:57;8.62;45.80
68177;DHT22;56478;50.982;7.032;2023-03-01T08:00:23;9.71;41.36
68177;DHT22;56478;50.982;7.032;2023-03-01T08:02:48;9.60;41.34
68177;DHT22;56478;50.982;7.032;2023-03-01T08:05:14;10.88;38.76
68177;DHT22;56478;50.982;7.032;2023-03-01T08:07:39;11.02;38.93
68177;DHT22;56478;50.982;7.032;2023-03-01T08:10:05;11.97;36.64
68177;DHT22;56478;50.982;7.032;2023-03-01T08:12:31;12.16;36.12
68177;DHT22;56478;50.982;7.032;2023-03-01T08:14:56;12.65;35.11
68177;DHT22;56478;50.982;7.032;2023-03-01T08:17:22;13.20;33.75
68177;DHT22;56478;50.982;7.032;2023-03-01T08:19:48;13.81;32.47
68177;DHT22;56478;50.982;7.032;2023-03-01T08:22:13;14.29;31.72
68177;DHT22;56478;50.982;7.032;2023-03-01T08:24:39;14.99;30.90
68177;DHT22;56478;50.982;7.032;2023-03-01T08:27:04;15.55;29.43
68177;DHT22;56478;50.982;7.032;2023-03-01T08:29:31;16.05;29.58
68177;DHT22;56478;50.982;7.032;2023-03-01T08:31:57;15.79;29.52
68177;DHT22;56478;50.982;7.032;2023-03-01T08:34:22;16.31;28.96
68177;DHT22;56478;50.982;7.032;2023-03-01T08:36:48;16.72;27.38
68177;DHT22;56478;50.982;7.032;2023-03-01T08:39:16;17.19;26.93
68177;DHT22;56478;50.982;7.032;2023-03-01T08:41:43;16.62;27.25
68177;DHT22;56478;50.982;7.032;2023-03-01T08:44:10;16.86;27.46
68177;DHT22;56478;50.982;7.032;2023-03-01T08:46:39;16.89;26.93
68177;DHT22;56478;50.982;7.032;2023-03-01T08:49:12;17.45;26.27
68177;DHT22;56478;50.982;7.032;2023-03-01T08:51:38;17.72;25.74
68177;DHT22;56478;50.982;7.032;2023-03-01T08:54:05;17.32;26.79
68177;DHT22;56478;50.982;7.032;2023-03-01T08:56:31;16.44;27.39
68177;DHT22;56478;50.982;7.032;2023-03-01T08:58:57;16.95;27.28
68177;DHT22;56478;50.982;7.032;2023-03-01T09:01:22;17.40;26.47
68177;DHT22;56478;50.982;7.032;2023-03-01T09:03:48;17.61;25.59
68177;DHT22;56478;50.982;7.032;2023-03-01T09:06:14;18.30;25.01
68177;DHT22;56478;50.982;7.032;2023-03-01T09:08:42;18.24;25.38
68177;DHT22;56478;50.982;7.032;2023-03-01T09:11:09;18.37;24.39
68177;DHT22;56478;50.982;7.032;2023-03-01T09:13:35;18.38;25.05
68177;DHT22;56478;50.982;7.032;2023-03-01T09:16:02;18.26;24.93
68177;DHT22;56478;50.982;7.032;2023-03-01T09:18:28;19.66;23.23
68177;DHT22;56478;50.982;7.032;2023-03-01T09:21:11;19.21;23.26
68177;DHT22;56478;50.982;7.032;2023-03-01T09:23:38;18.33;24.83
68177;DHT22;56478;50.982;7.032;2023-03-01T09:26:23;18.69;24.55
68177;DHT22;56478;50.982;7.032;2023-03-01T09:28:50;20.27;22.09
68177;DHT22;56478;50.982;7.032;2023-03-01T09:31:17;18.58;24.73
68177;DHT22;56478;50.982;7.032;2023-03-01T09:33:46;18.89;23.41
68177;DHT22;56478;50.982;7.032;2023-03-01T09:36:15;19.28;23.14
68177;DHT22;56478;50.982;7.032;2023-03-01T09:38:42;18.34;24.30
68177;DHT22;56478;50.982;7.032;2023-03-01T09:43:53;19.79;22.72
68177;DHT22;56478;50.982;7.032;2023-03-01T09:46:23;19.69;22.88
68177;DHT22;56478;50.982;7.032;2023-03-01T09:48:56;19.34;24.24
68177;DHT22;56478;50.982;7.032;2023-03-01T09:51:31;19.25;23.07
68177;DHT22;56478;50.982;7.032;2023-03-01T09:53:57;19.49;22.55
68177;DHT22;56478;50.982;7.032;2023-03-01T09:56:52;18.97;23.60
68177;DHT22;56478;50.982;7.032;2023-03-01T09:59:26;18.97;23.10
68177;DHT22;56478;50.982;7.032;2023-03-01T10:02:00;18.62;22.89
68177;DHT22;56478;50.982;7.032;2023-03-01T10:04:47;18.90;23.83
68177;DHT22;56478;50.982;7.032;2023-03-01T10:09:43;19.77;22.56
68177;DHT22;56478;50.982;7.032;2023-03-01T10:12:14;19.59;21.90
68177;DHT22;56478;50.982;7.032;2023-03-01T10:17:34;19.28;23.82
68177;DHT22;56478;50.982;7.032;2023-03-01T10:22:41;19.58;23.14
68177;DHT22;56478;50.982;7.032;2023-03-01T10:25:13;19.57;24.11
68177;DHT22;56478;50.982;7.032;2023-03-01T10:27:53;19.73;23.32
68177;DHT22;56478;50.982;7.032;2023-03-01T10:30:39;19.11;23.17
68177;DHT22;56478;50.982;7.032;2023-03-01T10:33:22;18.96;23.34
68177;DHT22;56478;50.982;7.032;2023-03-01T10:35:49;19.72;22.52
68177;DHT22;56478;50.982;7.032;2023-03-01T10:38:16;19.27;23.14
68177;DHT22;56478;50.982;7.032;2023-03-01T10:41:06;19.34;23.10
68177;DHT22;56478;50.982;7.032;2023-03-01T10:46:31;19.08;23.33
68177;DHT22;56478;50.982;7.032;2023-03-01T10:51:49;18.41;24.31
68177;DHT22;56478;50.982;7.032;2023-03-01T10:54:27;17.14;24.07
68177;DHT22;56478;50.982;7.032;2023-03-01T10:56:57;16.44;26.13
68177;DHT22;56478;50.982;7.032;2023-03-01T10:59:35;14.72;27.67
68177;DHT22;56478;50.982;7.032;2023-03-01T11:02:49;14.19;29.36
68177;DHT22;56478;50.982;7.032;2023-03-01T11:07:54;14.96;28.79
68177;DHT22;56478;50.982;7.032;2023-03-01T11:10:34;15.40;27.69
68177;DHT22;56478;50.982;7.032;2023-03-01T11:13:16;15.10;28.77
68177;DHT22;56478;50.982;7.032;2023-03-01T11:15:43;14.91;28.39
68177;DHT22;56478;50.982;7.032;2023-03-01T11:18:23;15.07;28.34
68177;DHT22;56478;50.982;7.032;2023-03-01T11:20:53;14.38;30.10
68177;DHT22;56478;50.982;7.032;2023-03-01T11:23:21;14.22;30.50
68177;DHT22;56478;50.982;7.032;2023-03-01T11:25:56;13.94;29.38
68177;DHT22;56478;50.982;7.032;2023-03-01T11:28:22;13.55;30.85
68177;DHT22;56478;50.982;7.032;2023-03-01T11:31:10;13.86;30.55
68177;DHT22;56478;50.982;7.032;2023-03-01T11:38:55;14.17;30.84
68177;DHT22;56478;50.982;7.032;2023-03-01T11:41:34;13.97;31.24
68177;DHT22;56478;50.982;7.032;2023-03-01T11:44:07;14.12;30.35
68177;DHT22;56478;50.982;7.032;2023-03-01T11:52:37;13.81;31.17
68177;DHT22;56478;50.982;7.032;2023-03-01T11:58:26;13.27;31.02
68177;DHT22;56478;50.982;7.032;2023-03-01T12:01:13;13.42;31.84
68177;DHT22;56478;50.982;7.032;2023-03-01T12:06:52;13.36;32.24
68177;DHT22;56478;50.982;7.032;2023-03-01T12:09:45;13.24;32.94
68177;DHT22;56478;50.982;7.032;2023-03-01T12:17:44;13.61;31.84
68177;DHT22;56478;50.982;7.032;2023-03-01T12:20:38;13.77;31.31
68177;DHT22;56478;50.982;7.032;2023-03-01T12:23:33;13.70;30.57
68177;DHT22;56478;50.982;7.032;2023-03-01T12:26:23;13.51;32.17
68177;DHT22;56478;50.982;7.032;2023-03-01T12:37:33;13.26;29.91
68177;DHT22;56478;50.982;7.032;2023-03-01T12:49:26;12.85;30.91
68177;DHT22;56478;50.982;7.032;2023-03-01T12:52:02;13.02;31.46
68177;DHT22;56478;50.982;7.032;2023-03-01T12:54:33;13.02;32.91
68177;DHT22;56478;50.982;7.032;2023-03-01T12:57:15;13.16;33.23
68177;DHT22;56478;50.982;7.032;2023-03-01T13:02:32;13.09;29.86
68177;DHT22;56478;50.982;7.032;2023-03-01T13:05:40;13.20;30.88
68177;DHT22;56478;50.982;7.032;2023-03-01T13:08:44;13.13;31.75
68177;DHT22;56478;50.982;7.032;2023-03-01T13:11:21;13.12;32.62
68177;DHT22;56478;50.982;7.032;2023-03-01T13:13:47;13.15;32.87
68177;DHT22;56478;50.982;7.032;2023-03-01T13:22:38;12.64;32.81
68177;DHT22;56478;50.982;7.032;2023-03-01T13:25:20;12.64;33.81
68177;DHT22;56478;50.982;7.032;2023-03-01T13:27:46;12.58;31.99
68177;DHT22;56478;50.982;7.032;2023-03-01T13:36:00;12.53;33.54
68177;DHT22;56478;50.982;7.032;2023-03-01T13:38:45;12.50;32.72
68177;DHT22;56478;50.982;7.032;2023-03-01T13:41:13;12.44;32.74
68177;DHT22;56478;50.982;7.032;2023-03-01T13:43:41;12.42;32.62
68177;DHT22;56478;50.982;7.032;2023-03-01T13:46:43;12.49;33.87
68177;DHT22;56478;50.982;7.032;2023-03-01T13:49:01;12.49;33.77
68177;DHT22;56478;50.982;7.032;2023-03-01T13:51:27;12.58;34.24
68177;DHT22;56478;50.982;7.032;2023-03-01T13:53:55;12.67;32.90
68177;DHT22;56478;50.982;7.032;2023-03-01T13:56:25;12.56;31.79
68177;DHT22;56478;50.982;7.032;2023-03-01T13:58:58;12.44;31.45
68177;DHT22;56478;50.982;7.032;2023-03-01T14:01:32;12.39;32.98
68177;DHT22;56478;50.982;7.032;2023-03-01T14:03:58;12.33;32.86
68177;DHT22;56478;50.982;7.032;2023-03-01T14:06:29;12.06;31.85
68177;DHT22;56478;50.982;7.032;2023-03-01T14:09:25;12.04;32.29
68177;DHT22;56478;50.982;7.032;2023-03-01T14:15:06;11.91;31.93
68177;DHT22;56478;50.982;7.032;2023-03-01T14:20:11;12.25;34.01
68177;DHT22;56478;50.982;7.032;2023-03-01T14:22:40;12.11;34.00
68177;DHT22;56478;50.982;7.032;2023-03-01T14:27:52;12.15;34.84
68177;DHT22;56478;50.982;7.032;2023-03-01T14:30:22;11.98;35.82
68177;DHT22;56478;50.982;7.032;2023-03-01T14:32:57;12.06;35.70
68177;DHT22;56478;50.982;7.032;2023-03-01T14:35:26;11.81;36.99
68177;DHT22;56478;50.982;7.032;2023-03-01T14:37:52;11.81;36.50
68177;DHT22;56478;50.982;7.032;2023-03-01T14:40:27;11.77;37.10
68177;DHT22;56478;50.982;7.032;2023-03-01T14:42:54;11.67;40.41
68177;DHT22;56478;50.982;7.032;2023-03-01T14:45:20;11.64;37.91
68177;DHT22;56478;50.982;7.032;2023-03-01T14:47:46;11.56;38.73
68177;DHT22;56478;50.982;7.032;2023-03-01T14:52:51;11.20;38.35
68177;DHT22;56478;50.982;7.032;2023-03-01T14:55:20;11.29;39.24
68177;DHT22;56478;50.982;7.032;2023-03-01T14:57:50;11.09;38.74
68177;DHT22;56478;50.982;7.032;2023-03-01T15:00:23;10.81;39.10
68177;DHT22;56478;50.982;7.032;2023-03-01T15:02:52;10.46;39.01
68177;DHT22;56478;50.982;7.032;2023-03-01T15:05:26;10.31;40.02
68177;DHT22;56478;50.982;7.032;2023-03-01T15:07:54;10.26;39.89
68177;DHT22;56478;50.982;7.032;2023-03-01T15:10:23;10.28;40.04
68177;DHT22;56478;50.982;7.032;2023-03-01T15:12:49;10.25;39.85
68177;DHT22;56478;50.982;7.032;2023-03-01T15:15:36;10.33;40.93
68177;DHT22;56478;50.982;7.032;2023-03-01T15:18:19;10.42;40.99
68177;DHT22;56478;50.982;7.032;2023-03-01T15:20:47;10.40;39.45
68177;DHT22;56478;50.982;7.032;2023-03-01T15:23:27;10.32;39.85
68177;DHT22;56478;50.982;7.032;2023-03-01T15:25:54;10.32;40.01
68177;DHT22;56478;50.982;7.032;2023-03-01T15:28:29;10.12;40.46
68177;DHT22;56478;50.982;7.032;2023-03-01T15:30:58;10.08;40.38
68177;DHT22;56478;50.982;7.032;2023-03-01T15:35:58;10.05;41.11
68177;DHT22;56478;50.982;7.032;2023-03-01T15:38:56;9.99;39.98
68177;DHT22;56478;50.982;7.032;2023-03-01T15:43:49;9.86;41.94
68177;DHT22;56478;50.982;7.032;2023-03-01T15:48:51;9.73;41.31
68177;DHT22;56478;50.982;7.032;2023-03-01T15:51:22;9.87;40.98
68177;DHT22;56478;50.982;7.032;2023-03-01T15:53:52;9.86;41.44
68177;DHT22;56478;50.982;7.032;2023-03-01T15:56:19;9.83;41.38
68177;DHT22;56478;50.982;7.032;2023-03-01T15:58:44;9.84;42.24
68177;DHT22;56478;50.982;7.032;2023-03-01T16:01:14;9.81;40.84
68177;DHT22;56478;50.982;7.032;2023-03-01T16:03:40;9.78;41.33
68177;DHT22;56478;50.982;7.032;2023-03-01T16:06:09;9.64;41.96
68177;DHT22;56478;50.982;7.032;2023-03-01T16:08:35;9.60;40.82
68177;DHT22;56478;50.982;7.032;2023-03-01T16:11:01;9.60;42.23
68177;DHT22;56478;50.982;7.032;2023-03-01T16:13:30;9.52;41.85
68177;DHT22;56478;50.982;7.032;2023-03-01T16:15:57;9.49;42.15
68177;DHT22;56478;50.982;7.032;2023-03-01T16:18:23;9.50;42.34
68177;DHT22;56478;50.982;7.032;2023-03-01T16:20:48;9.43;43.79
68177;DHT22;56478;50.982;7.032;2023-03-01T16:23:14;9.35;42.53
68177;DHT22;56478;50.982;7.032;2023-03-01T16:25:40;9.31;43.47
68177;DHT22;56478;50.982;7.032;2023-03-01T16:28:06;9.26;41.82
68177;DHT22;56478;50.982;7.032;2023-03-01T16:30:36;9.21;41.74
68177;DHT22;56478;50.982;7.032;2023-03-01T16:33:02;9.15;41.65
68177;DHT22;56478;50.982;7.032;2023-03-01T16:35:32;9.05;42.73
68177;DHT22;56478;50.982;7.032;2023-03-01T16:37:59;8.90;43.86
68177;DHT22;56478;50.982;7.032;2023-03-01T16:40:27;8.84;41.52
68177;DHT22;56478;50.982;7.032;2023-03-01T16:42:54;8.77;41.98
68177;DHT22;56478;50.982;7.032;2023-03-01T16:45:25;8.57;43.53
68177;DHT22;56478;50.982;7.032;2023-03-01T16:47:51;8.57;44.05
68177;DHT22;56478;50.982;7.032;2023-03-01T16:50:17;8.53;43.00
68177;DHT22;56478;50.982;7.032;2023-03-01T16:52:43;8.41;45.23
68177;DHT22;56478;50.982;7.032;2023-03-01T16:55:09;8.41;43.88
68177;DHT22;56478;50.982;7.032;2023-03-01T16:57:36;8.37;44.57
68177;DHT22;56478;50.982;7.032;2023-03-01T17:00:04;8.34;44.70
68177;DHT22;56478;50.982;7.032;2023-03-01T17:02:33;8.24;43.79
68177;DHT22;56478;50.982;7.032;2023-03-01T17:04:59;8.14;43.96
68177;DHT22;56478;50.982;7.032;2023-03-01T17:07:25;8.07;45.67
68177;DHT22;56478;50.982;7.032;2023-03-01T17:09:50;7.98;44.48
68177;DHT22;56478;50.982;7.032;2023-03-01T17:12:16;7.90;45.90
68177;DHT22;56478;50.982;7.032;2023-03-01T17:14:42;7.79;44.87
68177;DHT22;56478;50.982;7.032;2023-03-01T17:17:09;7.72;46.69
68177;DHT22;56478;50.982;7.032;2023-03-01T17:19:34;7.66;45.85
68177;DHT22;56478;50.982;7.032;2023-03-01T17:22:03;7.56;46.82
68177;DHT22;56478;50.982;7.032;2023-03-01T17:24:32;7.58;45.04
68177;DHT22;56478;50.982;7.032;2023-03-01T17:26:58;7.52;47.18
68177;DHT22;56478;50.982;7.032;2023-03-01T17:29:24;7.49;46.52
68177;DHT22;56478;50.982;7.032;2023-03-01T17:31:49;7.42;45.29
68177;DHT22;56478;50.982;7.032;2023-03-01T17:34:15;7.35;45.79
68177;DHT22;56478;50.982;7.032;2023-03-01T17:36:41;7.24;47.42